Impacts TAF Board INFO
FOR SITUATIONAL AWARENESS. NOT TO BE USED FOR FLIGHT PLANNING PURPOSES.
IDs:

KEET - Alabaster/Shelby Cnt, AL, US

Issued at 1727 UTC 25 Apr 2018
Updated at 2018 UTC 25 Apr 2018
Potential Impact None Slight Moderate High
Time1953Z 25/21Z 25/22Z 25/23Z 26/00Z 26/01Z 26/02Z 26/03Z 26/04Z 26/05Z 26/06Z 26/07Z 26/08Z 26/09Z>>
Type OBS PRVL PRVL PRVL PRVL PRVL PRVL PRVL PRVL PRVL PRVL PRVL PRVL PRVL
VIS 10 >6 >6 >6 >6 >6 >6 >6 >6 >6 >6 >6 >6 >6
CIG -- -- -- -- -- -- -- -- -- -- -- -- 30 30
Cover FEW SCT SCT SCT SCT SCT SCT SCT SCT SCT SCT SCT OVC OVC
FltCat VFR VFR VFR VFR VFR VFR VFR VFR VFR VFR VFR VFR MVFR MVFR
WX -- -- -- -- -- -- -- -- -- -- -- -- VCSH VCSH
WDir VRB 340 340 340 340 340 340 340 340 340 340 340 70 70
WSpd 5 8 8 8 8 8 8 8 8 8 8 8 3 3
WGst -- -- -- -- -- -- -- -- -- -- -- -- -- --

Raw TAF
KEET 251727Z 2518/2618 34008KT P6SM SCT030
  FM260800 07003KT P6SM VCSH OVC030
  FM261000 09004KT P6SM RA VCTS OVC020CB
  FM261700 21007KT P6SM VCSH OVC030


Raw METAR
KEET 251953Z AUTO VRB05KT 10SM FEW047 23/12 A2995 RMK AO2 SLP137 T02280122
KEET 251853Z AUTO 33008KT 10SM FEW039 22/13 A2997 RMK AO2 SLP145 T02220128
KEET 251753Z AUTO 31007KT 10SM OVC034 20/13 A2999 RMK AO2 SLP150 T02000128 10206 20133 58013

METAR Board
Radar Display
Forecast Discussion

FOR SITUATIONAL AWARENESS. NOT TO BE USED FOR FLIGHT PLANNING PURPOSES.